Pagrindinis puslapis
METAR-TAF:

METAR-TAF

Oro uostai :

Atqasuk, Aliaska, Jungtinės Amerikos Valstijos

platuma: 70-28-02N, ilguma: 157-26-08W, Aukštis: 31 m

Dabartinis oras

Ataskaita buvo paskelbta 4 minutes, ne 20:56 UTC
Vėjas 5 kt iš Vakarų/Pietvakarių
Temperatūra -9°C
Drėgmė 85%
Slėgis 1017 hPa
Matomumas: 0.8 km
Apsiniaukę ne aukštis 200 ft
įšaldymas rūko

METAR: PATQ 282056Z AUTO 24005KT 1/2SM FZFG OVC002 M09/M11 A3003 RMK AO2 SLP173 60000 T10941106 51014 FZRANO TSNO

Laikas: 13:00 (21:00 UTC)


TAF: trūkstamas

Orai ataskaitas ir orų prognozės (METAR, TAF).

turimą stotys yra geltonos ir raudonos taškus žemėlapyje.

Perkelti pele per norėdami pamatyti stoties vardą.

Tada spustelėkite, norėdami matyti oro stebėjimo ir prognozės.

Norėdami pakeisti žemėlapį: spustelėkite ant žalios mygtukų su juodo kryžiaus žemyn,; žalią mygtuką su brūkšneliu, jei norite nutolinti; arba žalių rodyklių gretimoms žemėlapius.


METAR-TAF: